sensor_id;sensor_type;location;lat;lon;timestamp;pressure;altitude;pressure_sealevel;temperature;humidity
77770;BME280;66961;51.482;9.160;2023-04-24T00:02:08;98019.97;;;10.14;75.71
77770;BME280;66961;51.482;9.160;2023-04-24T00:04:34;98021.59;;;10.08;75.48
77770;BME280;66961;51.482;9.160;2023-04-24T00:06:59;98022.00;;;10.12;76.04
77770;BME280;66961;51.482;9.160;2023-04-24T00:09:24;98015.66;;;9.93;76.17
77770;BME280;66961;51.482;9.160;2023-04-24T00:11:49;98017.94;;;10.03;75.20
77770;BME280;66961;51.482;9.160;2023-04-24T00:14:15;98022.41;;;9.95;75.47
77770;BME280;66961;51.482;9.160;2023-04-24T00:16:40;98016.28;;;9.88;76.08
77770;BME280;66961;51.482;9.160;2023-04-24T00:19:06;98016.28;;;9.82;75.78
77770;BME280;66961;51.482;9.160;2023-04-24T00:21:31;98019.50;;;9.71;76.43
77770;BME280;66961;51.482;9.160;2023-04-24T00:23:56;98014.81;;;9.66;76.28
77770;BME280;66961;51.482;9.160;2023-04-24T00:26:21;98008.13;;;9.70;75.81
77770;BME280;66961;51.482;9.160;2023-04-24T00:28:47;98020.31;;;9.65;76.56
77770;BME280;66961;51.482;9.160;2023-04-24T00:31:12;98018.84;;;9.55;77.33
77770;BME280;66961;51.482;9.160;2023-04-24T00:33:37;98008.47;;;9.54;77.08
77770;BME280;66961;51.482;9.160;2023-04-24T00:36:03;98009.91;;;9.56;76.83
77770;BME280;66961;51.482;9.160;2023-04-24T00:38:28;98008.44;;;9.47;77.00
77770;BME280;66961;51.482;9.160;2023-04-24T00:40:53;98007.63;;;9.47;76.25
77770;BME280;66961;51.482;9.160;2023-04-24T00:43:18;98007.03;;;9.51;75.85
77770;BME280;66961;51.482;9.160;2023-04-24T00:45:44;98000.50;;;9.47;75.75
77770;BME280;66961;51.482;9.160;2023-04-24T00:48:09;97999.50;;;9.48;75.37
77770;BME280;66961;51.482;9.160;2023-04-24T00:50:36;97994.84;;;9.50;74.66
77770;BME280;66961;51.482;9.160;2023-04-24T00:53:01;98009.47;;;9.46;74.73
77770;BME280;66961;51.482;9.160;2023-04-24T00:55:26;98018.56;;;9.37;74.98
77770;BME280;66961;51.482;9.160;2023-04-24T00:57:52;98008.44;;;9.34;75.15
77770;BME280;66961;51.482;9.160;2023-04-24T01:00:18;98011.06;;;9.34;74.62
77770;BME280;66961;51.482;9.160;2023-04-24T01:02:44;98011.44;;;9.24;74.44
77770;BME280;66961;51.482;9.160;2023-04-24T01:05:09;98006.94;;;9.18;74.81
77770;BME280;66961;51.482;9.160;2023-04-24T01:07:35;98008.78;;;9.24;74.57
77770;BME280;66961;51.482;9.160;2023-04-24T01:10:01;98008.75;;;9.18;74.79
77770;BME280;66961;51.482;9.160;2023-04-24T01:12:26;98005.69;;;9.14;75.68
77770;BME280;66961;51.482;9.160;2023-04-24T01:14:51;97991.84;;;9.12;75.39
77770;BME280;66961;51.482;9.160;2023-04-24T01:17:17;98001.81;;;9.10;76.03
77770;BME280;66961;51.482;9.160;2023-04-24T01:19:42;98003.41;;;9.05;75.51
77770;BME280;66961;51.482;9.160;2023-04-24T01:22:10;97991.19;;;9.04;76.01
77770;BME280;66961;51.482;9.160;2023-04-24T01:24:36;97993.41;;;9.00;76.13
77770;BME280;66961;51.482;9.160;2023-04-24T01:27:01;97995.44;;;8.98;75.61
77770;BME280;66961;51.482;9.160;2023-04-24T01:29:27;97996.25;;;8.99;75.96
77770;BME280;66961;51.482;9.160;2023-04-24T01:31:53;97992.56;;;8.93;76.05
77770;BME280;66961;51.482;9.160;2023-04-24T01:34:18;97988.69;;;8.89;76.57
77770;BME280;66961;51.482;9.160;2023-04-24T01:36:45;97989.69;;;8.88;76.07
77770;BME280;66961;51.482;9.160;2023-04-24T01:39:11;97982.38;;;8.90;76.43
77770;BME280;66961;51.482;9.160;2023-04-24T01:41:36;97979.97;;;8.95;76.83
77770;BME280;66961;51.482;9.160;2023-04-24T01:44:02;97988.09;;;8.93;77.09
77770;BME280;66961;51.482;9.160;2023-04-24T01:46:27;97981.56;;;8.89;77.62
77770;BME280;66961;51.482;9.160;2023-04-24T01:48:53;97977.53;;;8.93;77.39
77770;BME280;66961;51.482;9.160;2023-04-24T01:51:18;97976.13;;;8.98;77.77
77770;BME280;66961;51.482;9.160;2023-04-24T01:53:43;97980.00;;;9.02;78.04
77770;BME280;66961;51.482;9.160;2023-04-24T01:56:09;97975.16;;;9.05;78.02
77770;BME280;66961;51.482;9.160;2023-04-24T01:58:34;97975.00;;;9.13;77.65
77770;BME280;66961;51.482;9.160;2023-04-24T02:01:00;97978.88;;;9.17;77.46
77770;BME280;66961;51.482;9.160;2023-04-24T02:03:26;97971.78;;;9.24;77.02
77770;BME280;66961;51.482;9.160;2023-04-24T02:05:51;97967.53;;;9.30;77.00
77770;BME280;66961;51.482;9.160;2023-04-24T02:08:17;97971.41;;;9.34;76.67
77770;BME280;66961;51.482;9.160;2023-04-24T02:10:42;97978.91;;;9.37;76.40
77770;BME280;66961;51.482;9.160;2023-04-24T02:13:07;97975.69;;;9.42;76.81
77770;BME280;66961;51.482;9.160;2023-04-24T02:15:32;97977.09;;;9.44;76.93
77770;BME280;66961;51.482;9.160;2023-04-24T02:17:57;97970.59;;;9.47;76.96
77770;BME280;66961;51.482;9.160;2023-04-24T02:20:23;97969.78;;;9.46;76.56
77770;BME280;66961;51.482;9.160;2023-04-24T02:22:48;97958.81;;;9.49;76.80
77770;BME280;66961;51.482;9.160;2023-04-24T02:25:13;97957.00;;;9.50;76.94
77770;BME280;66961;51.482;9.160;2023-04-24T02:27:39;97949.66;;;9.45;76.66
77770;BME280;66961;51.482;9.160;2023-04-24T02:30:04;97951.91;;;9.48;77.23
77770;BME280;66961;51.482;9.160;2023-04-24T02:32:30;97959.63;;;9.50;76.94
77770;BME280;66961;51.482;9.160;2023-04-24T02:34:55;97950.50;;;9.52;77.09
77770;BME280;66961;51.482;9.160;2023-04-24T02:37:20;97950.09;;;9.55;77.11
77770;BME280;66961;51.482;9.160;2023-04-24T02:39:45;97952.94;;;9.60;77.19
77770;BME280;66961;51.482;9.160;2023-04-24T02:42:11;97957.44;;;9.67;76.79
77770;BME280;66961;51.482;9.160;2023-04-24T02:44:36;97953.19;;;9.72;76.85
77770;BME280;66961;51.482;9.160;2023-04-24T02:47:01;97956.22;;;9.76;77.08
77770;BME280;66961;51.482;9.160;2023-04-24T02:49:26;97954.81;;;9.80;76.64
77770;BME280;66961;51.482;9.160;2023-04-24T02:51:52;97949.72;;;9.78;77.25
77770;BME280;66961;51.482;9.160;2023-04-24T02:54:17;97957.06;;;9.83;77.94
77770;BME280;66961;51.482;9.160;2023-04-24T02:56:42;97948.31;;;9.82;79.01
77770;BME280;66961;51.482;9.160;2023-04-24T02:59:07;97959.28;;;9.79;80.32
77770;BME280;66961;51.482;9.160;2023-04-24T03:01:33;97958.69;;;9.77;81.28
77770;BME280;66961;51.482;9.160;2023-04-24T03:03:58;97955.63;;;9.74;81.43
77770;BME280;66961;51.482;9.160;2023-04-24T03:06:23;97949.09;;;9.70;81.92
77770;BME280;66961;51.482;9.160;2023-04-24T03:08:48;97949.50;;;9.60;82.16
77770;BME280;66961;51.482;9.160;2023-04-24T03:11:13;97949.69;;;9.58;81.55
77770;BME280;66961;51.482;9.160;2023-04-24T03:13:39;97944.38;;;9.52;82.48
77770;BME280;66961;51.482;9.160;2023-04-24T03:16:04;97942.13;;;9.49;82.79
77770;BME280;66961;51.482;9.160;2023-04-24T03:18:29;97944.38;;;9.45;83.15
77770;BME280;66961;51.482;9.160;2023-04-24T03:20:54;97940.88;;;9.38;83.37
77770;BME280;66961;51.482;9.160;2023-04-24T03:23:20;97953.28;;;9.38;84.67
77770;BME280;66961;51.482;9.160;2023-04-24T03:25:45;97954.13;;;9.32;84.72
77770;BME280;66961;51.482;9.160;2023-04-24T03:28:10;97955.91;;;9.24;85.00
77770;BME280;66961;51.482;9.160;2023-04-24T03:30:35;97960.97;;;9.19;85.29
77770;BME280;66961;51.482;9.160;2023-04-24T03:33:01;97943.28;;;9.13;85.26
77770;BME280;66961;51.482;9.160;2023-04-24T03:35:26;97949.38;;;9.14;85.87
77770;BME280;66961;51.482;9.160;2023-04-24T03:37:51;97944.47;;;9.11;85.61
77770;BME280;66961;51.482;9.160;2023-04-24T03:40:16;97932.66;;;9.07;86.21
77770;BME280;66961;51.482;9.160;2023-04-24T03:42:42;97932.47;;;9.08;86.56
77770;BME280;66961;51.482;9.160;2023-04-24T03:45:07;97914.97;;;9.07;86.36
77770;BME280;66961;51.482;9.160;2023-04-24T03:47:33;97929.63;;;9.10;86.66
77770;BME280;66961;51.482;9.160;2023-04-24T03:49:58;97920.72;;;9.17;85.18
77770;BME280;66961;51.482;9.160;2023-04-24T03:52:23;97913.34;;;9.06;85.14
77770;BME280;66961;51.482;9.160;2023-04-24T03:54:49;97935.94;;;9.09;85.11
77770;BME280;66961;51.482;9.160;2023-04-24T03:57:14;97927.59;;;9.05;85.19
77770;BME280;66961;51.482;9.160;2023-04-24T03:59:39;97928.38;;;8.99;85.39
77770;BME280;66961;51.482;9.160;2023-04-24T04:02:04;97920.22;;;8.94;85.60
77770;BME280;66961;51.482;9.160;2023-04-24T04:04:29;97928.94;;;8.88;85.97
77770;BME280;66961;51.482;9.160;2023-04-24T04:06:55;97930.56;;;8.82;86.34
77770;BME280;66961;51.482;9.160;2023-04-24T04:09:20;97921.59;;;8.77;86.82
77770;BME280;66961;51.482;9.160;2023-04-24T04:11:45;97930.94;;;8.79;86.42
77770;BME280;66961;51.482;9.160;2023-04-24T04:14:10;97928.69;;;8.76;86.09
77770;BME280;66961;51.482;9.160;2023-04-24T04:16:35;97939.47;;;8.75;86.11
77770;BME280;66961;51.482;9.160;2023-04-24T04:19:01;97936.59;;;8.70;86.25
77770;BME280;66961;51.482;9.160;2023-04-24T04:21:26;97928.66;;;8.70;86.74
77770;BME280;66961;51.482;9.160;2023-04-24T04:23:51;97935.19;;;8.74;86.40
77770;BME280;66961;51.482;9.160;2023-04-24T04:26:16;97937.84;;;8.80;86.72
77770;BME280;66961;51.482;9.160;2023-04-24T04:28:42;97928.34;;;8.92;85.93
77770;BME280;66961;51.482;9.160;2023-04-24T04:31:07;97916.16;;;8.98;85.69
77770;BME280;66961;51.482;9.160;2023-04-24T04:33:32;97913.78;;;9.10;84.46
77770;BME280;66961;51.482;9.160;2023-04-24T04:35:57;97913.78;;;9.10;84.55
77770;BME280;66961;51.482;9.160;2023-04-24T04:38:23;97920.91;;;9.16;83.60
77770;BME280;66961;51.482;9.160;2023-04-24T04:40:48;97935.97;;;9.15;83.29
77770;BME280;66961;51.482;9.160;2023-04-24T04:43:13;97932.53;;;9.21;83.31
77770;BME280;66961;51.482;9.160;2023-04-24T04:45:39;97940.06;;;9.24;82.83
77770;BME280;66961;51.482;9.160;2023-04-24T04:48:04;97945.38;;;9.31;82.03
77770;BME280;66961;51.482;9.160;2023-04-24T04:50:30;97944.75;;;9.29;82.38
77770;BME280;66961;51.482;9.160;2023-04-24T04:52:55;97944.56;;;9.31;81.95
77770;BME280;66961;51.482;9.160;2023-04-24T04:55:20;97943.53;;;9.32;81.48
77770;BME280;66961;51.482;9.160;2023-04-24T04:57:46;97948.00;;;9.31;81.88
77770;BME280;66961;51.482;9.160;2023-04-24T05:00:11;97951.88;;;9.35;81.47
77770;BME280;66961;51.482;9.160;2023-04-24T05:02:37;97952.47;;;9.31;82.21
77770;BME280;66961;51.482;9.160;2023-04-24T05:05:03;97961.44;;;9.29;82.01
77770;BME280;66961;51.482;9.160;2023-04-24T05:07:28;97965.28;;;9.27;82.09
77770;BME280;66961;51.482;9.160;2023-04-24T05:09:53;97980.31;;;9.26;81.53
77770;BME280;66961;51.482;9.160;2023-04-24T05:12:19;97978.31;;;9.28;80.61
77770;BME280;66961;51.482;9.160;2023-04-24T05:14:44;97979.09;;;9.22;79.36
77770;BME280;66961;51.482;9.160;2023-04-24T05:17:09;97989.88;;;9.21;80.02
77770;BME280;66961;51.482;9.160;2023-04-24T05:19:34;97992.91;;;9.18;78.74
77770;BME280;66961;51.482;9.160;2023-04-24T05:22:00;97975.38;;;9.10;79.49
77770;BME280;66961;51.482;9.160;2023-04-24T05:24:25;97991.66;;;9.14;78.83
77770;BME280;66961;51.482;9.160;2023-04-24T05:26:50;97989.25;;;9.19;78.39
77770;BME280;66961;51.482;9.160;2023-04-24T05:29:15;97987.19;;;9.14;77.88
77770;BME280;66961;51.482;9.160;2023-04-24T05:31:40;97989.25;;;9.19;76.00
77770;BME280;66961;51.482;9.160;2023-04-24T05:34:06;97998.00;;;9.19;74.86
77770;BME280;66961;51.482;9.160;2023-04-24T05:36:31;97992.91;;;9.18;73.80
77770;BME280;66961;51.482;9.160;2023-04-24T05:38:56;98007.13;;;9.17;74.76
77770;BME280;66961;51.482;9.160;2023-04-24T05:41:21;98008.75;;;9.18;74.97
77770;BME280;66961;51.482;9.160;2023-04-24T05:43:47;98007.13;;;9.17;74.59
77770;BME280;66961;51.482;9.160;2023-04-24T05:46:12;98015.69;;;9.19;74.10
77770;BME280;66961;51.482;9.160;2023-04-24T05:48:37;98012.00;;;9.13;72.31
77770;BME280;66961;51.482;9.160;2023-04-24T05:51:02;98019.25;;;9.05;72.52
77770;BME280;66961;51.482;9.160;2023-04-24T05:53:28;98017.16;;;8.93;72.44
77770;BME280;66961;51.482;9.160;2023-04-24T05:55:53;98016.50;;;8.85;71.67
77770;BME280;66961;51.482;9.160;2023-04-24T05:58:18;98018.84;;;9.01;72.96
77770;BME280;66961;51.482;9.160;2023-04-24T06:00:43;98019.38;;;9.24;72.03
77770;BME280;66961;51.482;9.160;2023-04-24T06:03:09;98018.59;;;9.44;73.55
77770;BME280;66961;51.482;9.160;2023-04-24T06:05:34;98029.41;;;9.49;72.89
77770;BME280;66961;51.482;9.160;2023-04-24T06:07:59;98034.91;;;9.54;71.41
77770;BME280;66961;51.482;9.160;2023-04-24T06:10:24;98030.06;;;9.57;70.53
77770;BME280;66961;51.482;9.160;2023-04-24T06:12:50;98031.47;;;9.53;69.78
77770;BME280;66961;51.482;9.160;2023-04-24T06:15:15;98039.63;;;9.58;69.60
77770;BME280;66961;51.482;9.160;2023-04-24T06:17:40;98044.09;;;9.58;70.83
77770;BME280;66961;51.482;9.160;2023-04-24T06:20:06;98036.94;;;9.52;70.85
77770;BME280;66961;51.482;9.160;2023-04-24T06:22:31;98034.31;;;9.52;69.39
77770;BME280;66961;51.482;9.160;2023-04-24T06:24:56;98044.50;;;9.61;70.81
77770;BME280;66961;51.482;9.160;2023-04-24T06:27:21;98052.06;;;9.71;68.32
77770;BME280;66961;51.482;9.160;2023-04-24T06:29:47;98049.47;;;9.84;68.83
77770;BME280;66961;51.482;9.160;2023-04-24T06:32:12;98041.56;;;10.04;68.49
77770;BME280;66961;51.482;9.160;2023-04-24T06:34:37;98038.72;;;10.12;65.96
77770;BME280;66961;51.482;9.160;2023-04-24T06:37:02;98025.47;;;10.06;66.81
77770;BME280;66961;51.482;9.160;2023-04-24T06:39:28;98037.88;;;10.05;66.91
77770;BME280;66961;51.482;9.160;2023-04-24T06:41:53;98037.69;;;9.87;66.47
77770;BME280;66961;51.482;9.160;2023-04-24T06:44:18;98049.66;;;9.89;66.95
77770;BME280;66961;51.482;9.160;2023-04-24T06:46:43;98036.84;;;9.93;65.64
77770;BME280;66961;51.482;9.160;2023-04-24T06:49:09;98039.88;;;9.77;65.17
77770;BME280;66961;51.482;9.160;2023-04-24T06:51:34;98040.06;;;9.69;65.08
77770;BME280;66961;51.482;9.160;2023-04-24T06:53:59;98045.16;;;9.70;63.29
77770;BME280;66961;51.482;9.160;2023-04-24T06:56:28;98056.16;;;9.74;65.27
77770;BME280;66961;51.482;9.160;2023-04-24T06:58:53;98052.50;;;9.75;63.03
77770;BME280;66961;51.482;9.160;2023-04-24T07:01:18;98056.19;;;9.80;63.07
77770;BME280;66961;51.482;9.160;2023-04-24T07:03:43;98067.59;;;9.94;63.90
77770;BME280;66961;51.482;9.160;2023-04-24T07:06:09;98063.78;;;10.16;62.02
77770;BME280;66961;51.482;9.160;2023-04-24T07:08:34;98064.03;;;10.54;63.92
77770;BME280;66961;51.482;9.160;2023-04-24T07:11:00;98055.06;;;10.69;63.37
77770;BME280;66961;51.482;9.160;2023-04-24T07:13:25;98067.88;;;10.91;63.26
77770;BME280;66961;51.482;9.160;2023-04-24T07:15:50;98068.31;;;10.75;63.00
77770;BME280;66961;51.482;9.160;2023-04-24T07:18:16;98070.53;;;10.52;61.52
77770;BME280;66961;51.482;9.160;2023-04-24T07:20:42;98079.31;;;10.59;63.43
77770;BME280;66961;51.482;9.160;2023-04-24T07:23:07;98078.28;;;10.60;62.41
77770;BME280;66961;51.482;9.160;2023-04-24T07:25:32;98090.09;;;10.44;62.22
77770;BME280;66961;51.482;9.160;2023-04-24T07:27:58;98073.19;;;10.32;62.30
77770;BME280;66961;51.482;9.160;2023-04-24T07:30:23;98083.78;;;10.25;63.05
77770;BME280;66961;51.482;9.160;2023-04-24T07:32:48;98071.34;;;10.26;62.07
77770;BME280;66961;51.482;9.160;2023-04-24T07:35:13;98103.94;;;10.20;59.54
77770;BME280;66961;51.482;9.160;2023-04-24T07:37:39;98090.09;;;10.31;62.92
77770;BME280;66961;51.482;9.160;2023-04-24T07:40:04;98085.03;;;10.36;60.43
77770;BME280;66961;51.482;9.160;2023-04-24T07:42:30;98089.31;;;10.37;60.83
77770;BME280;66961;51.482;9.160;2023-04-24T07:44:55;98091.53;;;10.34;60.10
77770;BME280;66961;51.482;9.160;2023-04-24T07:47:20;98100.88;;;10.23;59.33
77770;BME280;66961;51.482;9.160;2023-04-24T07:49:45;98086.63;;;10.24;60.74
77770;BME280;66961;51.482;9.160;2023-04-24T07:52:11;98081.75;;;10.27;60.84
77770;BME280;66961;51.482;9.160;2023-04-24T07:54:36;98100.28;;;10.34;60.52
77770;BME280;66961;51.482;9.160;2023-04-24T07:57:01;98085.63;;;10.45;61.31
77770;BME280;66961;51.482;9.160;2023-04-24T07:59:26;98091.34;;;10.61;60.08
77770;BME280;66961;51.482;9.160;2023-04-24T08:01:51;98094.19;;;10.73;59.40
77770;BME280;66961;51.482;9.160;2023-04-24T08:04:17;98072.16;;;10.79;60.37
77770;BME280;66961;51.482;9.160;2023-04-24T08:06:42;98086.03;;;10.61;60.84
77770;BME280;66961;51.482;9.160;2023-04-24T08:09:07;98065.25;;;10.45;61.08
77770;BME280;66961;51.482;9.160;2023-04-24T08:11:32;98082.78;;;10.86;60.27
77770;BME280;66961;51.482;9.160;2023-04-24T08:13:58;98087.19;;;11.12;62.44
77770;BME280;66961;51.482;9.160;2023-04-24T08:16:23;98086.38;;;11.18;57.36
77770;BME280;66961;51.482;9.160;2023-04-24T08:18:48;98093.53;;;11.04;59.23
77770;BME280;66961;51.482;9.160;2023-04-24T08:21:13;98094.75;;;10.95;59.45
77770;BME280;66961;51.482;9.160;2023-04-24T08:23:39;98100.31;;;10.74;61.05
77770;BME280;66961;51.482;9.160;2023-04-24T08:26:04;98078.28;;;10.60;60.23
77770;BME280;66961;51.482;9.160;2023-04-24T08:28:30;98110.91;;;10.60;60.39
77770;BME280;66961;51.482;9.160;2023-04-24T08:30:55;98096.03;;;10.59;60.77
77770;BME280;66961;51.482;9.160;2023-04-24T08:33:22;98111.28;;;10.31;61.46
77770;BME280;66961;51.482;9.160;2023-04-24T08:35:48;98103.16;;;10.39;60.79
77770;BME280;66961;51.482;9.160;2023-04-24T08:38:13;98113.31;;;10.42;61.66
77770;BME280;66961;51.482;9.160;2023-04-24T08:40:38;98111.91;;;10.40;61.64
77770;BME280;66961;51.482;9.160;2023-04-24T08:43:04;98123.31;;;10.34;60.90
77770;BME280;66961;51.482;9.160;2023-04-24T08:45:29;98122.91;;;10.30;60.06
77770;BME280;66961;51.482;9.160;2023-04-24T08:47:54;98112.31;;;10.37;59.87
77770;BME280;66961;51.482;9.160;2023-04-24T08:50:21;98121.88;;;10.31;60.86
77770;BME280;66961;51.482;9.160;2023-04-24T08:52:47;98137.59;;;10.39;59.06
77770;BME280;66961;51.482;9.160;2023-04-24T08:55:12;98128.59;;;10.47;59.84
77770;BME280;66961;51.482;9.160;2023-04-24T08:57:37;98116.41;;;10.39;59.80
77770;BME280;66961;51.482;9.160;2023-04-24T09:00:03;98104.78;;;10.47;58.11
77770;BME280;66961;51.482;9.160;2023-04-24T09:02:28;98117.41;;;10.51;58.99
77770;BME280;66961;51.482;9.160;2023-04-24T09:04:55;98117.81;;;10.55;58.47
77770;BME280;66961;51.482;9.160;2023-04-24T09:07:22;98123.94;;;10.62;57.94
77770;BME280;66961;51.482;9.160;2023-04-24T09:09:48;98119.84;;;10.53;59.34
77770;BME280;66961;51.482;9.160;2023-04-24T09:12:15;98115.97;;;10.55;59.17
77770;BME280;66961;51.482;9.160;2023-04-24T09:14:40;98118.63;;;10.49;58.84
77770;BME280;66961;51.482;9.160;2023-04-24T09:17:06;98111.91;;;10.46;59.20
77770;BME280;66961;51.482;9.160;2023-04-24T09:19:31;98124.13;;;10.41;59.09
77770;BME280;66961;51.482;9.160;2023-04-24T09:21:56;98119.03;;;10.46;58.88
77770;BME280;66961;51.482;9.160;2023-04-24T09:24:22;98115.78;;;10.57;57.83
77770;BME280;66961;51.482;9.160;2023-04-24T09:26:48;98118.25;;;10.65;58.39
77770;BME280;66961;51.482;9.160;2023-04-24T09:29:18;98117.84;;;10.88;59.88
77770;BME280;66961;51.482;9.160;2023-04-24T09:31:44;98119.25;;;10.90;59.40
77770;BME280;66961;51.482;9.160;2023-04-24T09:34:10;98111.31;;;10.90;57.80
77770;BME280;66961;51.482;9.160;2023-04-24T09:36:37;98104.16;;;10.98;56.89
77770;BME280;66961;51.482;9.160;2023-04-24T09:39:05;98123.91;;;11.08;56.10
77770;BME280;66961;51.482;9.160;2023-04-24T09:41:32;98103.94;;;11.06;56.38
77770;BME280;66961;51.482;9.160;2023-04-24T09:44:11;98115.09;;;11.34;58.07
77770;BME280;66961;51.482;9.160;2023-04-24T09:46:37;98110.09;;;11.71;58.14
77770;BME280;66961;51.482;9.160;2023-04-24T09:49:16;98104.78;;;11.77;57.04
77770;BME280;66961;51.482;9.160;2023-04-24T09:51:42;98100.44;;;11.89;54.94
77770;BME280;66961;51.482;9.160;2023-04-24T09:54:14;98119.88;;;11.83;57.06
77770;BME280;66961;51.482;9.160;2023-04-24T09:56:43;98114.81;;;12.13;57.23
77770;BME280;66961;51.482;9.160;2023-04-24T09:59:08;98107.28;;;12.42;55.88
77770;BME280;66961;51.482;9.160;2023-04-24T10:01:34;98116.47;;;12.08;55.80
77770;BME280;66961;51.482;9.160;2023-04-24T10:03:59;98096.06;;;12.02;54.94
77770;BME280;66961;51.482;9.160;2023-04-24T10:06:33;98128.22;;;11.87;56.68
77770;BME280;66961;51.482;9.160;2023-04-24T10:08:59;98110.69;;;11.73;55.41
77770;BME280;66961;51.482;9.160;2023-04-24T10:11:28;98122.03;;;11.42;58.10
77770;BME280;66961;51.482;9.160;2023-04-24T10:13:54;98118.97;;;11.38;57.89
77770;BME280;66961;51.482;9.160;2023-04-24T10:16:22;98118.56;;;11.35;57.66
77770;BME280;66961;51.482;9.160;2023-04-24T10:18:48;98117.38;;;11.31;58.40
77770;BME280;66961;51.482;9.160;2023-04-24T10:21:14;98115.44;;;11.57;57.24
77770;BME280;66961;51.482;9.160;2023-04-24T10:23:41;98112.75;;;11.64;56.63
77770;BME280;66961;51.482;9.160;2023-04-24T10:26:12;98131.22;;;11.39;57.26
77770;BME280;66961;51.482;9.160;2023-04-24T10:28:37;98154.50;;;11.04;58.41
77770;BME280;66961;51.482;9.160;2023-04-24T10:31:03;98130.69;;;10.91;63.07
77770;BME280;66961;51.482;9.160;2023-04-24T10:33:30;98120.66;;;10.93;59.60
77770;BME280;66961;51.482;9.160;2023-04-24T10:35:55;98136.56;;;10.93;58.61
77770;BME280;66961;51.482;9.160;2023-04-24T10:38:24;98124.13;;;11.07;59.72
77770;BME280;66961;51.482;9.160;2023-04-24T10:40:50;98133.34;;;10.91;61.03
77770;BME280;66961;51.482;9.160;2023-04-24T10:43:17;98133.31;;;10.65;64.67
77770;BME280;66961;51.482;9.160;2023-04-24T10:46:00;98129.25;;;10.62;63.27
77770;BME280;66961;51.482;9.160;2023-04-24T10:48:26;98140.66;;;10.69;59.87
77770;BME280;66961;51.482;9.160;2023-04-24T10:50:53;98147.56;;;10.44;60.95
77770;BME280;66961;51.482;9.160;2023-04-24T10:53:23;98154.59;;;10.10;61.77
77770;BME280;66961;51.482;9.160;2023-04-24T10:55:50;98160.66;;;10.04;64.79
77770;BME280;66961;51.482;9.160;2023-04-24T10:58:21;98177.63;;;10.16;62.53
77770;BME280;66961;51.482;9.160;2023-04-24T11:00:55;98164.38;;;10.16;61.09
77770;BME280;66961;51.482;9.160;2023-04-24T11:03:31;98172.09;;;10.11;59.71
77770;BME280;66961;51.482;9.160;2023-04-24T11:06:01;98161.66;;;9.96;59.28
77770;BME280;66961;51.482;9.160;2023-04-24T11:08:30;98163.69;;;9.94;59.77
77770;BME280;66961;51.482;9.160;2023-04-24T11:10:59;98170.00;;;9.93;59.17
77770;BME280;66961;51.482;9.160;2023-04-24T11:13:27;98172.81;;;9.85;59.66
77770;BME280;66961;51.482;9.160;2023-04-24T11:18:39;98186.63;;;9.74;59.92
77770;BME280;66961;51.482;9.160;2023-04-24T11:21:17;98209.22;;;9.77;59.79
77770;BME280;66961;51.482;9.160;2023-04-24T11:23:42;98190.00;;;9.61;60.29
77770;BME280;66961;51.482;9.160;2023-04-24T11:26:19;98199.72;;;9.54;60.70
77770;BME280;66961;51.482;9.160;2023-04-24T11:28:47;98215.13;;;9.44;59.66
77770;BME280;66961;51.482;9.160;2023-04-24T11:31:38;98205.72;;;9.42;60.61
77770;BME280;66961;51.482;9.160;2023-04-24T11:34:14;98227.28;;;9.39;60.34
77770;BME280;66961;51.482;9.160;2023-04-24T11:36:40;98240.69;;;9.37;59.56
77770;BME280;66961;51.482;9.160;2023-04-24T11:39:07;98229.66;;;9.27;60.46
77770;BME280;66961;51.482;9.160;2023-04-24T11:41:33;98238.97;;;9.23;61.01
77770;BME280;66961;51.482;9.160;2023-04-24T11:43:59;98245.38;;;9.35;60.50
77770;BME280;66961;51.482;9.160;2023-04-24T11:46:28;98258.69;;;9.20;60.17
77770;BME280;66961;51.482;9.160;2023-04-24T11:48:53;98262.91;;;9.15;60.39
77770;BME280;66961;51.482;9.160;2023-04-24T11:51:19;98273.47;;;9.15;60.64
77770;BME280;66961;51.482;9.160;2023-04-24T11:53:44;98264.66;;;9.08;61.27
77770;BME280;66961;51.482;9.160;2023-04-24T11:56:09;98283.84;;;9.16;62.64
77770;BME280;66961;51.482;9.160;2023-04-24T11:58:38;98286.44;;;9.10;61.75
77770;BME280;66961;51.482;9.160;2023-04-24T12:01:04;98282.41;;;9.35;61.80
77770;BME280;66961;51.482;9.160;2023-04-24T12:03:29;98265.22;;;9.52;61.06
77770;BME280;66961;51.482;9.160;2023-04-24T12:06:11;98281.81;;;9.68;61.18
77770;BME280;66961;51.482;9.160;2023-04-24T12:08:36;98290.28;;;9.56;61.71
77770;BME280;66961;51.482;9.160;2023-04-24T12:11:03;98281.28;;;9.51;63.02
77770;BME280;66961;51.482;9.160;2023-04-24T12:13:29;98293.25;;;9.47;62.95
77770;BME280;66961;51.482;9.160;2023-04-24T12:15:54;98292.28;;;9.54;63.70
77770;BME280;66961;51.482;9.160;2023-04-24T12:18:24;98307.03;;;9.42;64.06
77770;BME280;66961;51.482;9.160;2023-04-24T12:20:49;98291.91;;;9.29;63.52
77770;BME280;66961;51.482;9.160;2023-04-24T12:23:15;98334.91;;;9.17;64.75
77770;BME280;66961;51.482;9.160;2023-04-24T12:25:40;98322.19;;;9.06;66.16
77770;BME280;66961;51.482;9.160;2023-04-24T12:33:27;98351.03;;;8.35;69.46
77770;BME280;66961;51.482;9.160;2023-04-24T12:35:53;98376.59;;;8.49;68.67
77770;BME280;66961;51.482;9.160;2023-04-24T12:38:22;98366.69;;;8.51;68.31
77770;BME280;66961;51.482;9.160;2023-04-24T12:41:04;98372.50;;;8.76;68.52
77770;BME280;66961;51.482;9.160;2023-04-24T12:43:30;98380.16;;;8.71;68.51
77770;BME280;66961;51.482;9.160;2023-04-24T12:45:55;98369.34;;;8.87;67.27
77770;BME280;66961;51.482;9.160;2023-04-24T12:48:20;98376.91;;;9.26;67.46
77770;BME280;66961;51.482;9.160;2023-04-24T12:50:46;98372.16;;;9.43;66.46
77770;BME280;66961;51.482;9.160;2023-04-24T12:53:11;98386.44;;;9.70;67.32
77770;BME280;66961;51.482;9.160;2023-04-24T12:55:37;98381.00;;;10.06;64.66
77770;BME280;66961;51.482;9.160;2023-04-24T12:58:02;98382.47;;;10.37;63.11
77770;BME280;66961;51.482;9.160;2023-04-24T13:00:27;98379.97;;;10.28;62.94
77770;BME280;66961;51.482;9.160;2023-04-24T13:02:52;98385.19;;;9.94;65.07
77770;BME280;66961;51.482;9.160;2023-04-24T13:05:18;98386.00;;;9.94;64.32
77770;BME280;66961;51.482;9.160;2023-04-24T13:07:44;98386.75;;;9.82;65.27
77770;BME280;66961;51.482;9.160;2023-04-24T13:10:10;98382.97;;;9.70;65.77